Airfield :
LOGIN :

Register | Disclaimer

   EN    FR    IT 

 










Legend :    VFR   Marginal VFR   IFR   Intensive IFR   Very Intensive IFR
Visi :
Ceiling :
>= 8 km
>= 3000ft
5 to 8 km
1000 to 3000 ft
1500m to 5 km
500 to 1000 ft
800 to 1500m
200 to 500 ft
< 800m
< 200 ft
Symbols :   Thunderstorms  Fog  Heavy snow  Heavy precipitations  Wind > 20 kt
SIGMETs :     Misc.  Thunderstorms  Icing  Turbulence  Mountain Waves  Volcanic Ashes







- Airport Elevation : 13 ft
- IATA code : LYX
- Download approach charts


EGMD - Lydd

CURRENT METAR :
  • 131650Z 26026G44KT 2500 +SHRA FEW012 BKN017 BKN023 09/07 Q0991

EXPIRED METARs :
  • 131620Z 24016KT 9999 BKN013 BKN018 10/08 Q0991
  • 131550Z 23019KT 8000 -RA FEW008 SCT013 BKN018 10/08 Q0991
  • 131520Z 24016KT 8000 -RA SCT012 BKN017 10/08 Q0992
  • 131450Z 23019G29KT 9999 SCT007 BKN015 10/08 Q0993
  • 131420Z 23015KT 9999 FEW010 SCT028 BKN033 10/08 Q0994
  • 131350Z 24018KT 9999 -RA FEW012 SCT017 BKN034 09/08 Q0995

TAF TAF EGMD
Valid from the 13 at 15:00 until the 14 at 00:00 UTC


131409Z 1315/1324 24013KT 9999 SCT025
TEMPO 1315/1317 24018G28KT 7000 SHRA BKN012
PROB30
TEMPO 1315/1316 25023G38KT 3000 +SHRA BKN009
TEMPO 1320/1324 6000 +SHRA BKN014
ATIS : +44 1797 322 422
No reported NOTAMs for that airfield.
1 SIGMET reported for the London FIR (EGTT) :
 
Severe turbulence
EGTT SIGMET 02 VALID 131500/131900 EGRR
EGTT LONDON FIR SEV TURB FCST W OF LINE N5204 W00600 - N4903 W00654 SFC/FL060 MOV E 50KT NC=



MET'MAP, your aeronautical weather chart ! - Copyright ORBIFLY December 2007 - Disclaimer

ORBIFLY MET'MAP TEAM :

Programming & Development : Alexandra Zaïnal
Concept & Development : Baudouin d'Aumeries
Co-Development & Prog : Marc-Olivier Méhu
Technical & hardware support : Manuel Goepfert

Contact : metmap@orbifly.com




SOURCES & CREDITS :

   NOAA